createdAt,value
2019-05-20T00:01:39.849Z,5.20
2019-05-20T00:04:41.211Z,6.40
2019-05-20T00:07:42.661Z,7.10
2019-05-20T00:10:44.191Z,7.95
2019-05-20T00:13:45.587Z,9.03
2019-05-20T00:16:46.989Z,7.90
2019-05-20T00:19:50.746Z,7.60
2019-05-20T00:22:51.469Z,6.67
2019-05-20T00:25:52.930Z,6.60
2019-05-20T00:28:54.455Z,9.20
2019-05-20T00:31:55.921Z,7.72
2019-05-20T00:34:57.406Z,7.87
2019-05-20T00:37:58.851Z,8.33
2019-05-20T00:41:00.344Z,5.85
2019-05-20T00:44:01.810Z,5.95
2019-05-20T00:47:03.178Z,6.62
2019-05-20T00:50:04.907Z,6.22
2019-05-20T00:53:06.312Z,4.83
2019-05-20T00:56:07.689Z,5.37
2019-05-20T00:59:09.444Z,4.22
2019-05-20T01:02:10.835Z,3.72
2019-05-20T01:05:12.458Z,5.00
2019-05-20T01:08:13.926Z,3.90
2019-05-20T01:11:15.335Z,3.70
2019-05-20T01:14:16.804Z,5.67
2019-05-20T01:17:18.187Z,6.17
2019-05-20T01:20:20.405Z,4.62
2019-05-20T01:23:21.941Z,5.10
2019-05-20T01:26:23.313Z,5.60
2019-05-20T01:29:24.731Z,4.72
2019-05-20T01:32:26.113Z,5.45
2019-05-20T01:35:27.641Z,5.47
2019-05-20T01:38:29.050Z,4.37
2019-05-20T01:41:30.472Z,4.03
2019-05-20T01:44:31.868Z,3.98
2019-05-20T01:47:33.275Z,3.30
2019-05-20T01:50:34.699Z,3.62
2019-05-20T01:53:36.135Z,3.52
2019-05-20T01:56:37.626Z,4.17
2019-05-20T01:59:39.126Z,3.20
2019-05-20T02:02:40.532Z,3.83
2019-05-20T02:05:41.962Z,3.92
2019-05-20T02:08:43.404Z,3.55
2019-05-20T02:11:44.766Z,3.60
2019-05-20T02:14:52.814Z,3.75
2019-05-20T02:17:54.235Z,3.47
2019-05-20T02:20:55.626Z,3.70
2019-05-20T02:23:57.059Z,5.47
2019-05-20T02:26:58.484Z,3.55
2019-05-20T02:29:59.904Z,4.20
2019-05-20T02:33:01.341Z,5.75
2019-05-20T02:36:02.811Z,3.90
2019-05-20T02:39:05.792Z,3.33
2019-05-20T02:42:07.180Z,4.33
2019-05-20T02:45:09.465Z,3.22
2019-05-20T02:48:10.855Z,3.37
2019-05-20T02:51:12.276Z,3.27
2019-05-20T02:54:13.673Z,3.33
2019-05-20T02:57:15.055Z,5.08
2019-05-20T03:00:16.695Z,3.33
2019-05-20T03:03:18.058Z,3.87
2019-05-20T03:06:19.462Z,3.62
2019-05-20T03:09:20.852Z,6.75
2019-05-20T03:12:22.229Z,6.10
2019-05-20T03:15:23.621Z,4.55
2019-05-20T03:18:24.981Z,5.05
2019-05-20T03:21:26.434Z,5.40
2019-05-20T03:24:27.816Z,5.37
2019-05-20T03:27:29.222Z,5.35
2019-05-20T03:30:30.650Z,6.03
2019-05-20T03:33:32.133Z,6.30
2019-05-20T03:36:33.544Z,6.25
2019-05-20T03:39:34.954Z,5.33
2019-05-20T03:42:36.394Z,4.95
2019-05-20T03:45:37.751Z,5.97
2019-05-20T03:48:39.154Z,5.67
2019-05-20T03:51:40.649Z,5.85
2019-05-20T03:54:42.038Z,5.53
2019-05-20T03:57:43.395Z,6.62
2019-05-20T04:00:48.430Z,6.85
2019-05-20T04:03:49.821Z,6.92
2019-05-20T04:06:51.239Z,6.85
2019-05-20T04:09:52.622Z,7.12
2019-05-20T04:12:54.065Z,6.12
2019-05-20T04:15:55.456Z,6.97
2019-05-20T04:18:56.864Z,7.50
2019-05-20T04:21:58.300Z,7.12
2019-05-20T04:24:59.710Z,7.40
2019-05-20T04:28:01.183Z,7.85
2019-05-20T04:31:02.606Z,7.55
2019-05-20T04:34:03.993Z,10.13
2019-05-20T04:37:05.379Z,7.05
2019-05-20T04:40:07.159Z,6.20
2019-05-20T04:43:08.621Z,4.70
2019-05-20T04:46:10.007Z,4.47
2019-05-20T04:49:11.440Z,4.60
2019-05-20T04:52:12.898Z,4.67
2019-05-20T04:55:14.504Z,4.08
2019-05-20T04:58:16.001Z,4.92
2019-05-20T05:01:17.405Z,9.60
2019-05-20T05:04:18.825Z,4.17
2019-05-20T05:07:20.235Z,4.45
2019-05-20T05:10:21.658Z,3.90
2019-05-20T05:13:23.498Z,5.90
2019-05-20T05:16:25.010Z,4.08
2019-05-20T05:19:26.403Z,3.77
2019-05-20T05:22:27.894Z,3.65
2019-05-20T05:25:29.327Z,3.80
2019-05-20T05:28:30.738Z,3.65
2019-05-20T05:31:32.202Z,4.20
2019-05-20T05:34:33.587Z,3.58
2019-05-20T05:37:35.009Z,3.72
2019-05-20T05:40:36.398Z,3.55
2019-05-20T05:43:37.862Z,3.77
2019-05-20T05:46:40.017Z,3.70
2019-05-20T05:49:42.476Z,5.00
2019-05-20T05:52:43.911Z,4.28
2019-05-20T05:55:45.365Z,4.60
2019-05-20T05:58:46.832Z,4.85
2019-05-20T06:01:48.265Z,6.15
2019-05-20T06:04:49.735Z,5.00
2019-05-20T06:07:51.130Z,6.20
2019-05-20T06:10:52.547Z,4.75
2019-05-20T06:13:54.022Z,4.78
2019-05-20T06:16:55.418Z,5.30
2019-05-20T06:19:56.847Z,6.25
2019-05-20T06:22:58.247Z,5.65
2019-05-20T06:25:59.647Z,7.10
2019-05-20T06:29:02.961Z,4.47
2019-05-20T06:32:05.324Z,5.53
2019-05-20T06:35:08.833Z,5.40
2019-05-20T06:38:29.329Z,6.95
2019-05-20T06:41:30.758Z,5.42
2019-05-20T06:44:32.211Z,5.75
2019-05-20T06:47:33.589Z,6.92
2019-05-20T06:50:34.975Z,8.33
2019-05-20T06:53:36.365Z,8.08
2019-05-20T06:56:38.931Z,8.10
2019-05-20T06:59:41.440Z,8.93
2019-05-20T07:02:43.093Z,8.35
2019-05-20T07:05:44.561Z,8.03
2019-05-20T07:08:46.012Z,9.03
2019-05-20T07:11:52.741Z,10.60
2019-05-20T07:14:50.632Z,8.78
2019-05-20T07:17:52.195Z,11.80
2019-05-20T07:20:53.664Z,10.18
2019-05-20T07:23:55.266Z,10.58
2019-05-20T07:26:56.711Z,12.67
2019-05-20T07:29:58.259Z,20.00
2019-05-20T07:32:59.857Z,16.57
2019-05-20T07:36:01.356Z,19.48
2019-05-20T07:39:02.906Z,22.35
2019-05-20T07:42:04.807Z,27.67
2019-05-20T07:45:06.761Z,28.70
2019-05-20T07:48:08.338Z,28.40
2019-05-20T07:51:12.234Z,31.62
2019-05-20T07:54:14.593Z,35.88
2019-05-20T07:57:18.422Z,34.92
2019-05-20T08:00:20.124Z,36.65
2019-05-20T08:03:21.747Z,36.68
2019-05-20T08:06:23.324Z,34.63
2019-05-20T08:09:24.843Z,39.03
2019-05-20T08:12:26.235Z,42.53
2019-05-20T08:15:27.731Z,46.55
2019-05-20T08:18:29.249Z,50.58
2019-05-20T08:21:30.703Z,46.33
2019-05-20T08:24:32.096Z,42.95
2019-05-20T08:27:33.530Z,40.33
2019-05-20T08:30:37.503Z,44.40
2019-05-20T08:33:38.943Z,39.35
2019-05-20T08:36:40.369Z,41.70
2019-05-20T08:39:41.824Z,39.88
2019-05-20T08:42:43.295Z,42.35
2019-05-20T08:45:44.729Z,43.28
2019-05-20T08:48:47.145Z,45.88
2019-05-20T08:51:48.531Z,46.18
2019-05-20T08:54:49.991Z,54.45
2019-05-20T08:57:51.491Z,45.67
2019-05-20T09:00:52.926Z,49.27
2019-05-20T09:03:54.360Z,54.58
2019-05-20T09:06:55.834Z,49.80
2019-05-20T09:09:57.269Z,48.00
2019-05-20T09:12:58.996Z,52.90
2019-05-20T09:16:00.483Z,47.98
2019-05-20T09:19:02.027Z,44.00
2019-05-20T09:22:03.469Z,44.25
2019-05-20T09:25:05.287Z,44.42
2019-05-20T09:28:08.198Z,45.15
2019-05-20T09:31:09.759Z,41.15
2019-05-20T09:34:11.358Z,34.20
2019-05-20T09:37:12.842Z,38.92
2019-05-20T09:40:23.157Z,40.35
2019-05-20T09:43:24.886Z,36.50
2019-05-20T09:46:26.287Z,41.33
2019-05-20T09:49:27.825Z,39.98
2019-05-20T09:52:29.503Z,38.33
2019-05-20T09:55:30.992Z,37.70
2019-05-20T09:58:32.432Z,34.67
2019-05-20T10:01:33.879Z,33.13
2019-05-20T10:04:35.329Z,36.50
2019-05-20T10:07:36.752Z,31.65
2019-05-20T10:10:38.662Z,33.18
2019-05-20T10:13:40.090Z,30.90
2019-05-20T10:16:42.564Z,33.28
2019-05-20T10:19:44.005Z,30.27
2019-05-20T10:22:45.438Z,33.08
2019-05-20T10:25:46.907Z,31.30
2019-05-20T10:28:48.344Z,30.88
2019-05-20T10:31:49.726Z,25.35
2019-05-20T10:34:51.266Z,29.57
2019-05-20T10:37:52.726Z,27.62
2019-05-20T10:40:54.197Z,29.35
2019-05-20T10:43:56.792Z,29.35
2019-05-20T10:46:58.206Z,27.82
2019-05-20T10:49:59.688Z,28.30
2019-05-20T10:53:01.251Z,32.20
2019-05-20T10:56:03.126Z,30.45
2019-05-20T10:59:05.738Z,31.82
2019-05-20T11:02:07.261Z,29.60
2019-05-20T11:05:09.990Z,28.20
2019-05-20T11:08:11.400Z,29.20
2019-05-20T11:11:14.311Z,31.07
2019-05-20T11:14:16.189Z,28.32
2019-05-20T11:17:17.636Z,24.47
2019-05-20T11:20:19.486Z,24.98
2019-05-20T11:23:20.927Z,24.25
2019-05-20T11:26:22.372Z,23.87
2019-05-20T11:29:23.831Z,23.38
2019-05-20T11:32:25.245Z,24.05
2019-05-20T11:35:26.699Z,21.97
2019-05-20T11:38:28.185Z,22.13
2019-05-20T11:41:52.289Z,21.27
2019-05-20T11:44:32.858Z,21.48
2019-05-20T11:47:34.338Z,22.95
2019-05-20T11:50:35.764Z,29.12
2019-05-20T11:53:37.152Z,27.32
2019-05-20T11:56:38.589Z,28.50
2019-05-20T11:59:39.967Z,28.20
2019-05-20T12:02:41.361Z,25.62
2019-05-20T12:05:42.901Z,28.32
2019-05-20T12:08:44.249Z,27.02
2019-05-20T12:11:45.624Z,26.97
2019-05-20T12:14:47.065Z,26.93
2019-05-20T12:17:48.500Z,26.55
2019-05-20T12:20:49.910Z,25.97
2019-05-20T12:23:51.289Z,26.48
2019-05-20T12:26:52.684Z,28.42
2019-05-20T12:29:54.096Z,29.27
2019-05-20T12:33:17.231Z,29.95
2019-05-20T12:35:58.661Z,31.62
2019-05-20T12:39:00.095Z,28.05
2019-05-20T12:42:01.562Z,30.25
2019-05-20T12:45:02.997Z,29.23
2019-05-20T12:48:04.620Z,29.67
2019-05-20T12:51:06.053Z,30.45
2019-05-20T12:54:07.438Z,30.80
2019-05-20T12:57:09.928Z,25.50
2019-05-20T13:00:12.280Z,28.83
2019-05-20T13:03:13.761Z,29.67
2019-05-20T13:06:15.200Z,26.30
2019-05-20T13:09:16.587Z,27.05
2019-05-20T13:12:17.996Z,29.65
2019-05-20T13:15:20.583Z,26.15
2019-05-20T13:18:21.980Z,27.07
2019-05-20T13:21:23.461Z,29.52
2019-05-20T13:24:24.835Z,25.97
2019-05-20T13:27:26.239Z,30.57
2019-05-20T13:30:27.635Z,26.17
2019-05-20T13:33:29.050Z,29.50
2019-05-20T13:36:30.451Z,30.50
2019-05-20T13:39:31.830Z,28.85
2019-05-20T13:42:33.290Z,30.60
2019-05-20T13:45:34.659Z,26.87
2019-05-20T13:48:36.139Z,25.08
2019-05-20T13:51:38.744Z,27.25
2019-05-20T13:54:40.343Z,28.50
2019-05-20T13:57:41.825Z,25.75
2019-05-20T14:00:43.221Z,23.35
2019-05-20T14:03:44.652Z,24.80
2019-05-20T14:06:46.046Z,24.15
2019-05-20T14:09:47.617Z,22.70
2019-05-20T14:12:49.071Z,22.82
2019-05-20T14:15:50.480Z,23.80
2019-05-20T14:18:51.898Z,23.47
2019-05-20T14:21:53.449Z,26.20
2019-05-20T14:24:54.895Z,22.22
2019-05-20T14:27:56.331Z,25.02
2019-05-20T14:30:57.812Z,25.70
2019-05-20T14:33:59.187Z,26.37
2019-05-20T14:37:00.599Z,28.83
2019-05-20T14:40:02.257Z,29.90
2019-05-20T14:43:03.685Z,28.77
2019-05-20T14:46:05.201Z,25.37
2019-05-20T14:49:06.579Z,26.62
2019-05-20T14:52:08.051Z,24.65
2019-05-20T14:55:09.931Z,29.65
2019-05-20T14:58:11.389Z,25.50
2019-05-20T15:01:12.872Z,26.75
2019-05-20T15:04:14.302Z,25.90
2019-05-20T15:07:29.113Z,27.60
2019-05-20T15:10:20.548Z,26.35
2019-05-20T15:13:22.085Z,23.98
2019-05-20T15:16:23.452Z,25.30
2019-05-20T15:19:24.905Z,20.12
2019-05-20T15:22:26.285Z,23.42
2019-05-20T15:25:27.706Z,19.73
2019-05-20T15:28:30.211Z,18.15
2019-05-20T15:31:31.576Z,19.10
2019-05-20T15:34:33.030Z,15.58
2019-05-20T15:37:34.449Z,16.30
2019-05-20T15:40:35.864Z,14.63
2019-05-20T15:43:37.315Z,15.08
2019-05-20T15:46:38.759Z,13.90
2019-05-20T15:49:40.148Z,14.63
2019-05-20T15:52:41.820Z,23.30
2019-05-20T15:55:43.461Z,25.62
2019-05-20T15:58:44.879Z,20.62
2019-05-20T16:01:46.271Z,21.97
2019-05-20T16:04:47.818Z,22.37
2019-05-20T16:07:49.257Z,21.35
2019-05-20T16:10:50.816Z,21.97
2019-05-20T16:13:52.234Z,20.72
2019-05-20T16:16:53.634Z,24.60
2019-05-20T16:19:55.043Z,24.00
2019-05-20T16:22:56.438Z,23.55
2019-05-20T16:25:57.918Z,25.72
2019-05-20T16:28:59.387Z,25.32
2019-05-20T16:32:00.847Z,24.45
2019-05-20T16:35:02.918Z,27.60
2019-05-20T16:38:04.591Z,25.17
2019-05-20T16:41:06.111Z,26.20
2019-05-20T16:44:07.781Z,21.82
2019-05-20T16:47:09.320Z,20.55
2019-05-20T16:50:11.339Z,14.73
2019-05-20T16:53:12.831Z,17.02
2019-05-20T16:56:14.395Z,18.98
2019-05-20T16:59:15.952Z,15.78
2019-05-20T17:02:17.505Z,16.70
2019-05-20T17:05:19.044Z,18.12
2019-05-20T17:08:20.437Z,16.87
2019-05-20T17:11:21.872Z,16.07
2019-05-20T17:14:23.310Z,18.87
2019-05-20T17:17:25.720Z,22.32
2019-05-20T17:20:27.149Z,21.50
2019-05-20T17:23:28.612Z,24.95
2019-05-20T17:26:30.064Z,27.10
2019-05-20T17:29:31.486Z,17.90
2019-05-20T17:32:33.020Z,13.13
2019-05-20T17:35:38.185Z,11.85
2019-05-20T17:38:39.658Z,9.63
2019-05-20T17:41:41.164Z,8.60
2019-05-20T17:44:42.592Z,7.85
2019-05-20T17:47:44.038Z,6.87
2019-05-20T17:50:45.475Z,7.20
2019-05-20T17:53:46.993Z,7.42
2019-05-20T17:56:48.524Z,8.33
2019-05-20T17:59:49.920Z,8.58
2019-05-20T18:02:51.376Z,8.80
2019-05-20T18:05:52.842Z,9.80
2019-05-20T18:08:55.930Z,15.85
2019-05-20T18:11:57.411Z,11.12
2019-05-20T18:15:00.511Z,21.45
2019-05-20T18:18:02.045Z,12.20
2019-05-20T18:21:03.498Z,11.50
2019-05-20T18:24:05.124Z,11.05
2019-05-20T18:27:07.383Z,10.63
2019-05-20T18:30:09.213Z,10.32
2019-05-20T18:33:10.627Z,9.50
2019-05-20T18:36:12.016Z,12.20
2019-05-20T18:39:13.685Z,10.98
2019-05-20T18:42:15.225Z,12.07
2019-05-20T18:45:16.716Z,13.25
2019-05-20T18:48:18.204Z,17.30
2019-05-20T18:51:19.587Z,14.70
2019-05-20T18:54:20.951Z,15.72
2019-05-20T18:57:22.425Z,16.42
2019-05-20T19:00:23.985Z,18.57
2019-05-20T19:03:26.530Z,17.35
2019-05-20T19:06:28.484Z,20.80
2019-05-20T19:09:29.857Z,19.92
2019-05-20T19:12:31.421Z,23.65
2019-05-20T19:15:33.060Z,19.60
2019-05-20T19:18:34.449Z,24.27
2019-05-20T19:21:35.851Z,23.18
2019-05-20T19:24:37.302Z,22.52
2019-05-20T19:27:38.822Z,27.70
2019-05-20T19:30:40.208Z,26.82
2019-05-20T19:33:42.912Z,23.38
2019-05-20T19:36:44.365Z,25.08
2019-05-20T19:39:45.856Z,26.25
2019-05-20T19:42:47.237Z,26.97
2019-05-20T19:45:49.704Z,28.85
2019-05-20T19:48:51.171Z,23.00
2019-05-20T19:51:53.668Z,26.12
2019-05-20T19:54:55.164Z,26.27
2019-05-20T19:57:56.547Z,27.48
2019-05-20T20:00:57.991Z,28.95
2019-05-20T20:03:59.404Z,28.00
2019-05-20T20:07:00.792Z,26.97
2019-05-20T20:10:08.958Z,30.52
2019-05-20T20:13:10.418Z,25.92
2019-05-20T20:16:17.115Z,29.07
2019-05-20T20:19:15.133Z,30.45
2019-05-20T20:22:16.566Z,27.07
2019-05-20T20:25:18.074Z,29.52
2019-05-20T20:28:19.525Z,31.40
2019-05-20T20:31:20.941Z,30.57
2019-05-20T20:34:22.309Z,31.87
2019-05-20T20:37:23.749Z,28.70
2019-05-20T20:40:25.228Z,30.55
2019-05-20T20:43:26.730Z,34.27
2019-05-20T20:46:28.117Z,31.15
2019-05-20T20:49:29.579Z,31.20
2019-05-20T20:52:32.528Z,30.48
2019-05-20T20:55:34.443Z,27.70
2019-05-20T20:58:35.850Z,28.30
2019-05-20T21:01:37.284Z,30.80
2019-05-20T21:04:38.842Z,27.82
2019-05-20T21:07:40.244Z,30.55
2019-05-20T21:10:41.729Z,27.75
2019-05-20T21:13:43.243Z,26.80
2019-05-20T21:16:44.626Z,29.07
2019-05-20T21:19:46.060Z,29.65
2019-05-20T21:22:47.530Z,28.92
2019-05-20T21:25:48.946Z,27.82
2019-05-20T21:28:50.403Z,27.45
2019-05-20T21:31:51.813Z,28.07
2019-05-20T21:34:53.217Z,28.25
2019-05-20T21:37:55.778Z,30.23
2019-05-20T21:40:57.218Z,33.98
2019-05-20T21:43:58.893Z,32.00
2019-05-20T21:47:00.232Z,31.68
2019-05-20T21:50:01.622Z,34.10
2019-05-20T21:53:03.139Z,32.55
2019-05-20T21:56:04.495Z,28.85
2019-05-20T21:59:05.896Z,33.23
2019-05-20T22:02:07.462Z,29.98
2019-05-20T22:05:09.014Z,35.48
2019-05-20T22:08:10.528Z,32.60
2019-05-20T22:11:11.971Z,30.37
2019-05-20T22:14:13.440Z,35.35
2019-05-20T22:17:14.817Z,33.10
2019-05-20T22:20:16.528Z,33.40
2019-05-20T22:23:35.500Z,31.97
2019-05-20T22:26:36.885Z,31.52
2019-05-20T22:29:38.286Z,32.45
2019-05-20T22:32:39.659Z,30.72
2019-05-20T22:35:41.060Z,33.38
2019-05-20T22:38:42.456Z,34.55
2019-05-20T22:41:43.851Z,34.40
2019-05-20T22:44:45.258Z,34.25
2019-05-20T22:47:46.639Z,35.35
2019-05-20T22:50:48.853Z,35.95
2019-05-20T22:53:50.501Z,34.65
2019-05-20T22:56:51.932Z,38.13
2019-05-20T22:59:53.281Z,37.10
2019-05-20T23:02:54.727Z,35.55
2019-05-20T23:05:56.150Z,38.08
2019-05-20T23:08:57.560Z,34.50
2019-05-20T23:11:58.966Z,36.00
2019-05-20T23:15:00.342Z,35.38
2019-05-20T23:18:01.802Z,37.35
2019-05-20T23:21:03.172Z,35.70
2019-05-20T23:24:04.579Z,33.95
2019-05-20T23:27:05.951Z,34.08
2019-05-20T23:30:07.867Z,31.80
2019-05-20T23:33:09.224Z,33.35
2019-05-20T23:36:10.632Z,34.50
2019-05-20T23:39:12.092Z,35.60
2019-05-20T23:42:13.584Z,33.33
2019-05-20T23:45:15.362Z,32.38
2019-05-20T23:48:16.767Z,34.70
2019-05-20T23:51:18.137Z,35.05
2019-05-20T23:54:19.551Z,34.88
2019-05-20T23:57:22.023Z,38.60
